createdAt,value
2024-02-23T00:00:10.445Z,10.15
2024-02-23T00:02:37.722Z,8.30
2024-02-23T00:05:05.927Z,8.13
2024-02-23T00:07:34.734Z,5.40
2024-02-23T00:10:02.131Z,6.78
2024-02-23T00:12:29.832Z,5.70
2024-02-23T00:14:57.173Z,4.78
2024-02-23T00:17:24.483Z,7.80
2024-02-23T00:19:51.975Z,7.63
2024-02-23T00:22:22.367Z,7.10
2024-02-23T00:24:51.039Z,9.23
2024-02-23T00:27:18.568Z,8.63
2024-02-23T00:29:45.809Z,6.78
2024-02-23T00:32:13.179Z,6.70
2024-02-23T00:34:40.938Z,5.63
2024-02-23T00:37:08.265Z,5.60
2024-02-23T00:39:35.665Z,6.22
2024-02-23T00:42:04.731Z,9.90
2024-02-23T00:44:32.118Z,7.53
2024-02-23T00:46:59.484Z,8.77
2024-02-23T00:49:27.001Z,8.18
2024-02-23T00:51:54.382Z,10.48
2024-02-23T00:54:21.710Z,7.35
2024-02-23T00:56:51.547Z,6.10
2024-02-23T00:59:21.644Z,7.88
2024-02-23T01:01:49.005Z,8.98
2024-02-23T01:04:16.461Z,7.25
2024-02-23T01:06:43.779Z,8.70
2024-02-23T01:09:11.143Z,6.95
2024-02-23T01:11:38.663Z,7.15
2024-02-23T01:14:06.126Z,8.77
2024-02-23T01:16:34.908Z,7.40
2024-02-23T01:19:02.134Z,8.43
2024-02-23T01:21:29.438Z,6.40
2024-02-23T01:23:56.810Z,8.45
2024-02-23T01:26:24.605Z,12.07
2024-02-23T01:28:52.118Z,7.68
2024-02-23T01:31:19.626Z,8.60
2024-02-23T01:33:48.394Z,7.93
2024-02-23T01:36:15.719Z,6.43
2024-02-23T01:38:42.916Z,6.03
2024-02-23T01:41:10.230Z,6.55
2024-02-23T01:43:37.554Z,8.43
2024-02-23T01:46:05.952Z,5.97
2024-02-23T01:48:34.160Z,8.38
2024-02-23T01:51:03.906Z,5.30
2024-02-23T01:53:31.675Z,4.38
2024-02-23T01:56:00.397Z,4.47
2024-02-23T01:58:29.608Z,6.03
2024-02-23T02:00:56.997Z,6.10
2024-02-23T02:03:24.551Z,6.20
2024-02-23T02:05:53.697Z,5.70
2024-02-23T02:08:22.455Z,6.53
2024-02-23T02:10:49.851Z,8.18
2024-02-23T02:13:17.249Z,6.22
2024-02-23T02:15:44.735Z,6.43
2024-02-23T02:18:12.281Z,6.93
2024-02-23T02:20:46.271Z,4.90
2024-02-23T02:23:13.848Z,7.40
2024-02-23T02:25:42.746Z,7.22
2024-02-23T02:28:10.004Z,7.70
2024-02-23T02:30:39.081Z,5.18
2024-02-23T02:33:06.614Z,6.70
2024-02-23T02:35:34.140Z,6.03
2024-02-23T02:38:01.680Z,6.20
2024-02-23T02:40:29.056Z,5.78
2024-02-23T02:42:57.849Z,6.82
2024-02-23T02:45:25.284Z,8.88
2024-02-23T02:47:52.484Z,4.82
2024-02-23T02:50:19.824Z,4.38
2024-02-23T02:52:47.141Z,3.58
2024-02-23T02:55:14.723Z,8.43
2024-02-23T02:57:42.077Z,3.90
2024-02-23T03:00:13.787Z,3.92
2024-02-23T03:02:41.056Z,3.72
2024-02-23T03:05:09.394Z,2.67
2024-02-23T03:07:36.769Z,6.55
2024-02-23T03:10:05.123Z,4.50
2024-02-23T03:12:32.500Z,2.75
2024-02-23T03:15:00.254Z,2.38
2024-02-23T03:17:29.027Z,1.85
2024-02-23T03:19:56.553Z,3.42
2024-02-23T03:22:24.251Z,4.50
2024-02-23T03:24:51.946Z,3.20
2024-02-23T03:27:19.831Z,3.20
2024-02-23T03:29:47.280Z,3.33
2024-02-23T03:32:14.736Z,2.65
2024-02-23T03:34:43.675Z,2.85
2024-02-23T03:37:11.323Z,2.72
2024-02-23T03:39:38.975Z,3.08
2024-02-23T03:42:07.158Z,5.80
2024-02-23T03:44:34.614Z,2.88
2024-02-23T03:47:02.163Z,2.65
2024-02-23T03:49:29.666Z,5.22
2024-02-23T03:51:58.636Z,4.93
2024-02-23T03:54:25.980Z,3.97
2024-02-23T03:56:53.217Z,4.90
2024-02-23T03:59:20.744Z,3.88
2024-02-23T04:01:48.134Z,4.10
2024-02-23T04:04:15.459Z,2.45
2024-02-23T04:06:43.238Z,3.38
2024-02-23T04:09:11.974Z,3.20
2024-02-23T04:11:39.381Z,2.60
2024-02-23T04:14:06.898Z,1.75
2024-02-23T04:16:34.480Z,3.63
2024-02-23T04:19:02.126Z,2.45
2024-02-23T04:21:29.916Z,4.47
2024-02-23T04:23:57.310Z,5.20
2024-02-23T04:26:26.335Z,4.60
2024-02-23T04:28:54.178Z,4.65
2024-02-23T04:31:21.827Z,5.38
2024-02-23T04:33:49.463Z,7.93
2024-02-23T04:36:21.267Z,6.97
2024-02-23T04:38:49.840Z,11.13
2024-02-23T04:41:21.931Z,11.63
2024-02-23T04:43:51.345Z,8.85
2024-02-23T04:46:18.814Z,8.30
2024-02-23T04:48:46.231Z,8.77
2024-02-23T04:51:13.977Z,12.02
2024-02-23T04:53:41.435Z,9.90
2024-02-23T04:56:09.191Z,11.23
2024-02-23T04:58:36.563Z,15.23
2024-02-23T05:01:05.400Z,11.75
2024-02-23T05:03:33.242Z,11.25
2024-02-23T05:06:00.747Z,11.75
2024-02-23T05:08:28.221Z,11.65
2024-02-23T05:10:55.664Z,11.77
2024-02-23T05:13:23.084Z,9.90
2024-02-23T05:15:50.420Z,6.43
2024-02-23T05:18:19.207Z,10.75
2024-02-23T05:20:46.679Z,7.93
2024-02-23T05:23:13.969Z,9.02
2024-02-23T05:25:41.375Z,8.68
2024-02-23T05:28:08.783Z,6.53
2024-02-23T05:30:36.192Z,6.93
2024-02-23T05:33:03.681Z,14.73
2024-02-23T05:35:32.715Z,16.40
2024-02-23T05:38:00.079Z,11.05
2024-02-23T05:40:27.538Z,8.60
2024-02-23T05:42:54.843Z,7.60
2024-02-23T05:45:22.498Z,5.05
2024-02-23T05:47:49.970Z,7.40
2024-02-23T05:50:17.854Z,4.90
2024-02-23T05:52:46.619Z,5.90
2024-02-23T05:55:14.314Z,4.75
2024-02-23T05:57:41.851Z,8.35
2024-02-23T06:00:10.051Z,7.82
2024-02-23T06:02:40.481Z,8.13
2024-02-23T06:05:09.362Z,10.65
2024-02-23T06:07:37.095Z,7.70
2024-02-23T06:10:06.921Z,14.85
2024-02-23T06:12:34.193Z,12.02
2024-02-23T06:15:01.629Z,8.65
2024-02-23T06:17:29.585Z,9.25
2024-02-23T06:19:57.136Z,10.68
2024-02-23T06:22:24.869Z,10.00
2024-02-23T06:24:52.523Z,7.75
2024-02-23T06:27:21.674Z,7.88
2024-02-23T06:29:49.607Z,10.15
2024-02-23T06:32:17.084Z,11.57
2024-02-23T06:34:44.561Z,10.13
2024-02-23T06:37:11.917Z,9.60
2024-02-23T06:39:39.254Z,21.23
2024-02-23T06:42:34.121Z,45.50
2024-02-23T06:45:01.570Z,28.05
2024-02-23T06:47:29.114Z,10.88
2024-02-23T06:50:00.314Z,9.52
2024-02-23T06:52:27.956Z,5.55
2024-02-23T06:54:55.519Z,6.75
2024-02-23T06:57:22.859Z,5.72
2024-02-23T06:59:51.568Z,8.73
2024-02-23T07:02:19.135Z,22.08
2024-02-23T07:04:46.473Z,19.45
2024-02-23T07:07:13.916Z,13.43
2024-02-23T07:09:41.191Z,8.52
2024-02-23T07:12:09.120Z,6.00
2024-02-23T07:14:36.796Z,7.03
2024-02-23T07:17:05.942Z,4.90
2024-02-23T07:19:33.422Z,6.35
2024-02-23T07:22:00.966Z,8.77
2024-02-23T07:24:28.383Z,7.45
2024-02-23T07:26:55.708Z,9.05
2024-02-23T07:29:23.075Z,7.47
2024-02-23T07:31:50.573Z,6.85
2024-02-23T07:34:19.506Z,4.70
2024-02-23T07:36:47.055Z,5.78
2024-02-23T07:39:14.560Z,9.35
2024-02-23T07:41:41.976Z,20.92
2024-02-23T07:44:09.426Z,21.15
2024-02-23T07:46:38.801Z,24.02
2024-02-23T07:49:06.905Z,26.33
2024-02-23T07:51:35.857Z,29.30
2024-02-23T07:54:03.648Z,27.75
2024-02-23T07:56:31.104Z,25.75
2024-02-23T07:59:01.788Z,19.55
2024-02-23T08:01:29.395Z,17.83
2024-02-23T08:03:58.383Z,16.80
2024-02-23T08:06:26.411Z,14.38
2024-02-23T08:08:55.387Z,15.43
2024-02-23T08:11:23.107Z,14.98
2024-02-23T08:13:50.610Z,20.25
2024-02-23T08:16:18.011Z,23.65
2024-02-23T08:18:45.619Z,19.90
2024-02-23T08:21:13.131Z,30.67
2024-02-23T08:23:40.775Z,19.73
2024-02-23T08:26:10.523Z,21.75
2024-02-23T08:28:38.122Z,22.27
2024-02-23T08:31:05.760Z,19.67
2024-02-23T08:33:33.588Z,16.90
2024-02-23T08:36:01.898Z,19.30
2024-02-23T08:38:29.549Z,17.40
2024-02-23T08:40:57.240Z,20.45
2024-02-23T08:43:26.481Z,19.90
2024-02-23T08:45:53.930Z,24.60
2024-02-23T08:48:21.678Z,22.77
2024-02-23T08:50:49.328Z,25.70
2024-02-23T08:53:20.904Z,26.92
2024-02-23T08:55:48.748Z,23.23
2024-02-23T08:58:17.702Z,26.45
2024-02-23T09:00:46.668Z,26.23
2024-02-23T09:03:14.265Z,24.17
2024-02-23T09:05:41.874Z,21.27
2024-02-23T09:08:09.558Z,21.10
2024-02-23T09:10:37.317Z,24.38
2024-02-23T09:13:05.155Z,20.98
2024-02-23T09:15:32.982Z,19.20
2024-02-23T09:18:01.925Z,16.40
2024-02-23T09:20:31.944Z,21.23
2024-02-23T09:22:59.579Z,18.65
2024-02-23T09:25:27.009Z,14.77
2024-02-23T09:27:58.687Z,12.63
2024-02-23T09:30:25.902Z,11.48
2024-02-23T09:32:53.325Z,11.52
2024-02-23T09:35:22.390Z,11.00
2024-02-23T09:37:49.600Z,11.93
2024-02-23T09:40:24.617Z,11.85
2024-02-23T09:42:58.455Z,12.93
2024-02-23T09:45:26.829Z,13.05
2024-02-23T09:47:55.335Z,12.27
2024-02-23T09:50:25.858Z,14.55
2024-02-23T09:52:55.398Z,14.25
2024-02-23T09:55:23.174Z,15.00
2024-02-23T09:57:56.621Z,15.00
2024-02-23T10:00:25.130Z,14.13
2024-02-23T10:02:52.427Z,15.27
2024-02-23T10:05:20.885Z,20.33
2024-02-23T10:07:49.812Z,17.35
2024-02-23T10:10:25.974Z,17.88
2024-02-23T10:12:53.432Z,24.15
2024-02-23T10:15:21.091Z,19.35
2024-02-23T10:17:48.651Z,24.15
2024-02-23T10:20:16.204Z,14.43
2024-02-23T10:22:43.584Z,14.27
2024-02-23T10:25:13.034Z,17.02
2024-02-23T10:27:41.999Z,12.77
2024-02-23T10:30:11.089Z,12.32
2024-02-23T10:32:40.253Z,11.40
2024-02-23T10:35:14.326Z,11.48
2024-02-23T10:37:44.482Z,15.13
2024-02-23T10:40:13.781Z,13.27
2024-02-23T10:42:43.627Z,15.43
2024-02-23T10:45:11.414Z,17.63
2024-02-23T10:47:39.526Z,15.02
2024-02-23T10:50:09.001Z,13.60
2024-02-23T10:52:37.129Z,18.85
2024-02-23T10:55:07.457Z,17.45
2024-02-23T10:57:36.696Z,18.38
2024-02-23T11:00:06.019Z,20.85
2024-02-23T11:02:36.578Z,19.00
2024-02-23T11:05:04.854Z,21.13
2024-02-23T11:07:32.374Z,17.85
2024-02-23T11:10:00.729Z,21.17
2024-02-23T11:12:30.861Z,26.13
2024-02-23T11:15:01.793Z,31.85
2024-02-23T11:17:31.097Z,23.77
2024-02-23T11:19:58.883Z,22.25
2024-02-23T11:22:36.454Z,22.00
2024-02-23T11:25:06.818Z,32.03
2024-02-23T11:27:35.428Z,29.95
2024-02-23T11:30:06.810Z,23.08
2024-02-23T11:32:39.996Z,38.60
2024-02-23T11:35:09.257Z,41.15
2024-02-23T11:37:49.354Z,23.17
2024-02-23T11:40:20.743Z,22.77
2024-02-23T11:42:48.844Z,15.93
2024-02-23T11:45:17.829Z,11.45
2024-02-23T11:47:45.545Z,13.90
2024-02-23T11:50:14.574Z,12.73
2024-02-23T11:52:42.524Z,13.60
2024-02-23T11:55:09.960Z,12.50
2024-02-23T11:57:46.687Z,20.83
2024-02-23T12:00:18.358Z,25.85
2024-02-23T12:02:45.950Z,21.52
2024-02-23T12:05:13.747Z,24.42
2024-02-23T12:07:45.170Z,26.45
2024-02-23T12:10:14.965Z,21.23
2024-02-23T12:12:42.544Z,21.50
2024-02-23T12:15:10.852Z,22.05
2024-02-23T12:17:48.890Z,30.10
2024-02-23T12:20:16.936Z,22.75
2024-02-23T12:22:44.570Z,24.23
2024-02-23T12:25:14.466Z,18.52
2024-02-23T12:27:42.465Z,23.90
2024-02-23T12:30:15.280Z,23.15
2024-02-23T12:32:44.315Z,25.83
2024-02-23T12:35:12.655Z,16.63
2024-02-23T12:37:43.306Z,13.20
2024-02-23T12:43:09.560Z,12.40
2024-02-23T12:45:37.456Z,67.47
2024-02-23T12:59:23.519Z,10.32
2024-02-23T13:14:33.082Z,16.73
2024-02-23T13:17:01.176Z,11.32
2024-02-23T13:19:29.447Z,12.60
2024-02-23T13:21:57.308Z,11.07
2024-02-23T13:24:24.806Z,13.13
2024-02-23T13:26:52.326Z,11.13
2024-02-23T13:29:20.062Z,11.60
2024-02-23T13:31:48.888Z,17.15
2024-02-23T13:34:16.342Z,24.65
2024-02-23T13:36:43.980Z,18.30
2024-02-23T13:39:11.413Z,17.35
2024-02-23T13:41:38.867Z,19.13
2024-02-23T13:44:06.477Z,14.02
2024-02-23T13:46:38.942Z,10.05
2024-02-23T13:49:09.011Z,12.68
2024-02-23T13:51:36.546Z,21.52
2024-02-23T13:54:04.097Z,25.85
2024-02-23T13:56:31.884Z,16.83
2024-02-23T13:58:59.537Z,21.48
2024-02-23T14:01:27.687Z,18.63
2024-02-23T14:03:55.221Z,6.75
2024-02-23T14:06:24.139Z,5.80
2024-02-23T14:08:51.562Z,8.35
2024-02-23T14:11:19.166Z,19.90
2024-02-23T14:13:49.334Z,16.70
2024-02-23T14:16:18.877Z,8.57
2024-02-23T14:18:46.404Z,10.15
2024-02-23T14:21:13.706Z,14.25
2024-02-23T14:23:42.700Z,322.52
2024-02-23T14:26:10.606Z,253.85
2024-02-23T14:28:38.021Z,112.15
2024-02-23T14:31:05.688Z,117.65
2024-02-23T14:33:33.745Z,211.55
2024-02-23T14:36:08.478Z,241.05
2024-02-23T14:38:36.184Z,43.40
2024-02-23T14:41:05.273Z,48.15
2024-02-23T14:43:32.896Z,358.50
2024-02-23T14:46:00.445Z,229.20
2024-02-23T14:48:28.054Z,138.30
2024-02-23T14:50:55.991Z,152.23
2024-02-23T14:53:25.209Z,178.43
2024-02-23T14:55:54.013Z,96.97
2024-02-23T14:58:22.983Z,29.45
2024-02-23T15:00:50.503Z,8.32
2024-02-23T15:03:18.019Z,39.88
2024-02-23T15:05:45.480Z,30.27
2024-02-23T15:08:12.999Z,148.98
2024-02-23T15:10:40.465Z,90.18
2024-02-23T15:13:09.173Z,81.93
2024-02-23T15:15:41.258Z,129.57
2024-02-23T15:18:08.922Z,124.53
2024-02-23T15:20:37.222Z,150.60
2024-02-23T15:23:05.343Z,62.63
2024-02-23T15:28:07.857Z,80.38
2024-02-23T15:30:36.808Z,77.47
2024-02-23T15:33:04.627Z,75.68
2024-02-23T15:35:32.315Z,151.30
2024-02-23T15:38:00.282Z,40.97
2024-02-23T15:40:27.734Z,33.13
2024-02-23T15:42:55.226Z,48.47
2024-02-23T15:45:22.852Z,53.40
2024-02-23T15:47:52.027Z,39.65
2024-02-23T15:50:34.895Z,24.08
2024-02-23T15:53:07.394Z,18.10
2024-02-23T15:55:34.905Z,17.17
2024-02-23T15:58:02.519Z,14.65
2024-02-23T16:00:29.856Z,13.52
2024-02-23T16:02:58.630Z,14.68
2024-02-23T16:05:36.793Z,10.73
2024-02-23T16:08:05.941Z,10.43
2024-02-23T16:10:39.056Z,12.25
2024-02-23T16:13:06.872Z,11.25
2024-02-23T16:15:34.463Z,11.98
2024-02-23T16:18:03.685Z,12.07
2024-02-23T16:20:31.348Z,15.35
2024-02-23T16:22:58.775Z,14.75
2024-02-23T16:25:26.350Z,19.05
2024-02-23T16:27:53.824Z,45.45
2024-02-23T16:30:21.114Z,42.67
2024-02-23T16:32:48.667Z,58.00
2024-02-23T16:35:17.798Z,43.30
2024-02-23T16:37:45.145Z,49.78
2024-02-23T16:40:21.450Z,35.05
2024-02-23T16:42:49.145Z,34.88
2024-02-23T16:45:17.789Z,55.08
2024-02-23T16:47:45.538Z,46.85
2024-02-23T16:50:13.093Z,42.83
2024-02-23T16:52:42.175Z,35.17
2024-02-23T16:55:11.909Z,41.40
2024-02-23T16:57:39.792Z,40.80
2024-02-23T17:00:08.793Z,42.08
2024-02-23T17:02:39.666Z,43.13
2024-02-23T17:05:09.597Z,47.70
2024-02-23T17:07:37.335Z,41.35
2024-02-23T17:10:07.738Z,28.60
2024-02-23T17:12:35.185Z,26.08
2024-02-23T17:15:02.490Z,20.85
2024-02-23T17:17:29.966Z,19.17
2024-02-23T17:19:57.542Z,21.02
2024-02-23T17:22:24.948Z,21.05
2024-02-23T17:24:52.544Z,21.25
2024-02-23T17:27:21.532Z,28.08
2024-02-23T17:29:48.996Z,26.20
2024-02-23T17:32:16.417Z,28.10
2024-02-23T17:34:45.288Z,30.95
2024-02-23T17:37:12.878Z,33.25
2024-02-23T17:39:40.170Z,27.55
2024-02-23T17:42:08.287Z,33.20
2024-02-23T17:44:37.567Z,26.10
2024-02-23T17:47:05.158Z,16.75
2024-02-23T17:49:32.895Z,16.55
2024-02-23T17:52:00.459Z,14.77
2024-02-23T17:54:29.169Z,16.60
2024-02-23T17:56:56.916Z,12.38
2024-02-23T17:59:24.306Z,8.80
2024-02-23T18:01:53.488Z,7.60
2024-02-23T18:04:21.186Z,9.52
2024-02-23T18:06:48.588Z,8.88
2024-02-23T18:09:16.133Z,7.43
2024-02-23T18:11:43.675Z,8.43
2024-02-23T18:14:11.122Z,5.68
2024-02-23T18:16:39.127Z,7.38
2024-02-23T18:19:08.044Z,6.78
2024-02-23T18:21:35.716Z,7.07
2024-02-23T18:24:03.567Z,9.98
2024-02-23T18:26:31.050Z,8.00
2024-02-23T18:28:58.642Z,8.95
2024-02-23T18:31:26.270Z,9.02
2024-02-23T18:33:53.914Z,9.70
2024-02-23T18:36:23.000Z,8.35
2024-02-23T18:38:50.391Z,7.53
2024-02-23T18:41:17.897Z,10.40
2024-02-23T18:43:47.397Z,10.27
2024-02-23T18:46:15.982Z,15.15
2024-02-23T18:48:43.451Z,11.73
2024-02-23T18:51:11.494Z,11.98
2024-02-23T18:53:40.444Z,10.80
2024-02-23T18:56:08.019Z,8.90
2024-02-23T18:58:35.729Z,8.23
2024-02-23T19:01:15.705Z,13.32
2024-02-23T19:03:43.340Z,10.18
2024-02-23T19:06:10.824Z,7.55
2024-02-23T19:08:40.176Z,6.95
2024-02-23T19:11:08.039Z,6.47
2024-02-23T19:13:35.508Z,7.00
2024-02-23T19:16:02.971Z,8.55
2024-02-23T19:18:30.270Z,7.13
2024-02-23T19:23:44.147Z,9.52
2024-02-23T19:26:11.773Z,10.00
2024-02-23T19:28:39.480Z,8.68
2024-02-23T19:31:07.584Z,8.30
2024-02-23T19:33:35.904Z,9.73
2024-02-23T19:36:04.703Z,8.38
2024-02-23T19:38:32.532Z,9.48
2024-02-23T19:41:03.372Z,8.38
2024-02-23T19:43:30.805Z,9.32
2024-02-23T19:46:07.241Z,7.93
2024-02-23T19:48:39.083Z,5.57
2024-02-23T19:51:06.843Z,8.65
2024-02-23T19:53:34.746Z,8.88
2024-02-23T19:56:06.093Z,5.72
2024-02-23T19:58:33.594Z,9.30
2024-02-23T20:01:06.380Z,8.43
2024-02-23T20:03:33.943Z,7.05
2024-02-23T20:06:01.639Z,6.55
2024-02-23T20:08:29.185Z,7.75
2024-02-23T20:13:50.429Z,5.35
2024-02-23T20:16:17.975Z,5.00
2024-02-23T20:18:45.551Z,3.95
2024-02-23T20:21:13.268Z,5.60
2024-02-23T20:23:40.895Z,5.97
2024-02-23T20:26:08.472Z,4.35
2024-02-23T20:28:35.843Z,4.82
2024-02-23T20:31:06.446Z,5.22
2024-02-23T20:33:34.492Z,5.65
2024-02-23T20:36:02.149Z,6.80
2024-02-23T20:38:29.695Z,8.20
2024-02-23T20:40:56.946Z,9.93
2024-02-23T20:43:33.937Z,6.10
2024-02-23T20:46:01.364Z,8.00
2024-02-23T20:48:30.354Z,7.43
2024-02-23T20:50:58.044Z,6.97
2024-02-23T20:53:25.421Z,6.65
2024-02-23T20:55:52.932Z,6.65
2024-02-23T20:58:20.528Z,9.38
2024-02-23T21:00:48.271Z,9.50
2024-02-23T21:03:16.942Z,9.23
2024-02-23T21:05:45.779Z,10.57
2024-02-23T21:08:13.225Z,8.02
2024-02-23T21:10:41.858Z,9.00
2024-02-23T21:13:09.313Z,8.45
2024-02-23T21:15:38.646Z,9.00
2024-02-23T21:18:06.444Z,6.47
2024-02-23T21:20:34.150Z,6.75
2024-02-23T21:23:03.000Z,9.30
2024-02-23T21:25:30.309Z,7.97
2024-02-23T21:27:58.160Z,9.98
2024-02-23T21:30:27.930Z,7.88
2024-02-23T21:32:55.442Z,8.55
2024-02-23T21:35:23.097Z,7.85
2024-02-23T21:37:51.525Z,7.60
2024-02-23T21:40:20.404Z,6.70
2024-02-23T21:42:48.014Z,9.35
2024-02-23T21:45:15.836Z,8.93
2024-02-23T21:47:43.147Z,7.53
2024-02-23T21:50:11.006Z,6.70
2024-02-23T21:52:38.603Z,8.13
2024-02-23T21:55:07.585Z,12.23
2024-02-23T21:57:36.569Z,8.40
2024-02-23T22:00:05.553Z,9.88
2024-02-23T22:02:32.760Z,12.30
2024-02-23T22:05:00.175Z,9.82
2024-02-23T22:07:27.857Z,11.52
2024-02-23T22:09:55.520Z,9.68
2024-02-23T22:12:23.207Z,8.77
2024-02-23T22:14:52.285Z,10.50
2024-02-23T22:17:19.826Z,17.83
2024-02-23T22:19:47.348Z,17.05
2024-02-23T22:22:14.804Z,16.35
2024-02-23T22:24:42.354Z,10.27
2024-02-23T22:27:09.806Z,9.45
2024-02-23T22:29:40.385Z,7.10
2024-02-23T22:32:09.340Z,8.15
2024-02-23T22:34:38.814Z,10.35
2024-02-23T22:37:06.172Z,8.57
2024-02-23T22:39:33.776Z,8.52
2024-02-23T22:42:01.248Z,9.25
2024-02-23T22:44:28.911Z,9.55
2024-02-23T22:46:56.267Z,8.85
2024-02-23T22:49:25.071Z,9.43
2024-02-23T22:51:53.194Z,11.55
2024-02-23T22:54:20.506Z,7.93
2024-02-23T22:56:48.104Z,11.45
2024-02-23T22:59:15.692Z,10.00
2024-02-23T23:01:43.121Z,8.85
2024-02-23T23:04:10.750Z,11.93
2024-02-23T23:06:41.987Z,10.88
2024-02-23T23:09:09.387Z,11.98
2024-02-23T23:11:37.284Z,10.05
2024-02-23T23:14:04.819Z,8.55
2024-02-23T23:16:32.151Z,10.73
2024-02-23T23:18:59.815Z,15.10
2024-02-23T23:21:27.113Z,14.73
2024-02-23T23:23:55.954Z,11.55
2024-02-23T23:26:23.427Z,9.23
2024-02-23T23:28:50.921Z,11.18
2024-02-23T23:31:19.064Z,10.05
2024-02-23T23:33:46.718Z,9.73
2024-02-23T23:36:14.258Z,9.95
2024-02-23T23:38:42.565Z,11.95
2024-02-23T23:41:11.734Z,8.65
2024-02-23T23:43:39.168Z,11.27
2024-02-23T23:46:06.646Z,9.38
2024-02-23T23:48:35.178Z,9.48
2024-02-23T23:51:02.608Z,9.57
2024-02-23T23:53:30.187Z,13.07
2024-02-23T23:55:57.584Z,11.10
2024-02-23T23:58:26.368Z,9.55
